CYRJ - Roberval Airport

Pirep is a free, collaborative database of all public and private airports located within the United States. All pilots are welcome to contribute, edit, and improve any airport they have local knowledge about, no registration required.
Are you familiar with this airport? Help out other pilots by adding your local knowledge.
Uploaded photos will be licensed under a CC BY-SA 4.0 license. Please only upload photos you have the rights to use.
Tags
Public
Undocu­mented
METAR / TAF
Edit Tags
Food
Camping
Lodging
Car Rental
Bicycles
Swimming
Golfing
Fishing
Hot Springs
Museum
Flying Clubs
Airpark
Upcoming Events
No upcoming events. Is anything happening here soon?
*
*
*

Where exactly on/near the airport is this event taking place?

Is there a webpage with more information for this event?

Who should be contacted for more information?

What is this event all about?

Repeat every
Description
Transient Parking
Fuel Location
Landing & Tie-down Fees
Crew Car Availability
Flying Clubs
WiFi Access
Airport Statistics
Location: Roberval, Quebec
Elevation: 586ft
Runway 16/34: 5,000ft
Warning: This airport was imported from a non-authoritative source. It's public/private status may not be accurate.
Access: Open to the public
Current Weather — VFR
  • Weather data is strictly informational and not for flight planning purposes.
  • METAR
    2024-06-17 09:00:00 EDT
    Ceiling Wind Temperature Dewpoint Weather Visbility
    10,000ft Variable 62°F 51°F N/A 40SM
    Clouds: Broken @ 10,000ft
    Raw: CYRJ 171300Z VRB02KT 40SM BKN100 17/11 A2999 RMK AC7 SLP161 DENSITY ALT 900FT
  • TAF
    2024-06-17 08:00:00 EDT – 2024-06-17 11:00:00 EDT
    Ceiling Wind Weather Visbility
    10,000ft 190° @ 5kt N/A 6SM
    Clouds: Broken @ 10,000ft
    Raw: TAF CYRJ 171140Z 1712/1724 19005KT P6SM BKN100 TEMPO 1712/1715 P6SM -SHRA OVC040 FM171500 21010G20KT P6SM BKN040 BECMG 1722/1724 22008KT RMK NXT FCST BY 171400Z
  • TAF
    2024-06-17 08:00:00 EDT – 2024-06-17 11:00:00 EDT
    Ceiling Wind Weather Visbility
    4,000ft ° @ kt Light rain showers 6SM
    Clouds: Overcast @ 4,000ft
    Raw: TAF CYRJ 171140Z 1712/1724 19005KT P6SM BKN100 TEMPO 1712/1715 P6SM -SHRA OVC040 FM171500 21010G20KT P6SM BKN040 BECMG 1722/1724 22008KT RMK NXT FCST BY 171400Z
  • TAF
    2024-06-17 11:00:00 EDT – 2024-06-17 18:00:00 EDT
    Ceiling Wind Weather Visbility
    4,000ft 210° @ 10kt, gusts 20kt N/A 6SM
    Clouds: Broken @ 4,000ft
    Raw: TAF CYRJ 171140Z 1712/1724 19005KT P6SM BKN100 TEMPO 1712/1715 P6SM -SHRA OVC040 FM171500 21010G20KT P6SM BKN040 BECMG 1722/1724 22008KT RMK NXT FCST BY 171400Z
  • TAF
    2024-06-17 18:00:00 EDT – 2024-06-17 20:00:00 EDT
    Ceiling Wind Weather Visbility
    4,000ft 220° @ 8kt N/A 6SM
    Clouds: Broken @ 4,000ft
    Raw: TAF CYRJ 171140Z 1712/1724 19005KT P6SM BKN100 TEMPO 1712/1715 P6SM -SHRA OVC040 FM171500 21010G20KT P6SM BKN040 BECMG 1722/1724 22008KT RMK NXT FCST BY 171400Z
Click/tap to add an annotation marker to the map
Airport Webcams
No webcams added yet.
Direct links to live image URLs will be displayed inline on this page. URLs to separate webpages will be linked to.
URL:
Direct links to live image URLs will be displayed inline on this page. URLs to separate webpages will be linked to.
URL:
Comments
Leave a comment What was your experience like at this airport?